sensor_id;sensor_type;location;lat;lon;timestamp;temperature;humidity
19972;DHT22;10147;16.402;102.848;2022-08-19T11:47:43;30.90;99.90
19972;DHT22;10147;16.402;102.848;2022-08-19T11:50:15;30.90;99.90
19972;DHT22;10147;16.402;102.848;2022-08-19T11:52:46;31.00;99.90
19972;DHT22;10147;16.402;102.848;2022-08-19T11:55:19;31.20;99.90
19972;DHT22;10147;16.402;102.848;2022-08-19T11:57:50;31.30;99.90
19972;DHT22;10147;16.402;102.848;2022-08-19T12:00:20;31.50;99.90
19972;DHT22;10147;16.402;102.848;2022-08-19T12:02:51;31.60;99.90
19972;DHT22;10147;16.402;102.848;2022-08-19T12:05:21;31.60;99.90
19972;DHT22;10147;16.402;102.848;2022-08-19T12:07:52;31.60;99.90
19972;DHT22;10147;16.402;102.848;2022-08-19T12:10:24;31.70;99.90
19972;DHT22;10147;16.402;102.848;2022-08-19T12:12:55;31.60;99.90
19972;DHT22;10147;16.402;102.848;2022-08-19T12:15:27;31.30;99.90
19972;DHT22;10147;16.402;102.848;2022-08-19T12:18:05;31.30;99.90
19972;DHT22;10147;16.402;102.848;2022-08-19T12:20:38;31.00;99.90
19972;DHT22;10147;16.402;102.848;2022-08-19T12:23:09;30.60;99.90
19972;DHT22;10147;16.402;102.848;2022-08-19T12:25:48;30.50;99.90
19972;DHT22;10147;16.402;102.848;2022-08-19T12:28:23;30.40;99.90
19972;DHT22;10147;16.402;102.848;2022-08-19T12:30:55;30.40;99.90
19972;DHT22;10147;16.402;102.848;2022-08-19T12:33:26;31.10;99.90
19972;DHT22;10147;16.402;102.848;2022-08-19T12:36:04;31.50;99.90
19972;DHT22;10147;16.402;102.848;2022-08-19T12:38:36;31.60;99.90
19972;DHT22;10147;16.402;102.848;2022-08-19T12:41:10;31.50;99.90
19972;DHT22;10147;16.402;102.848;2022-08-19T12:43:41;31.10;99.90
19972;DHT22;10147;16.402;102.848;2022-08-19T12:46:12;31.10;99.90
19972;DHT22;10147;16.402;102.848;2022-08-19T12:48:45;31.00;99.90
19972;DHT22;10147;16.402;102.848;2022-08-19T12:51:24;31.20;99.90
19972;DHT22;10147;16.402;102.848;2022-08-19T12:53:56;31.30;99.90
19972;DHT22;10147;16.402;102.848;2022-08-19T12:56:26;31.00;99.90
19972;DHT22;10147;16.402;102.848;2022-08-19T12:58:56;30.60;99.90
19972;DHT22;10147;16.402;102.848;2022-08-19T13:01:26;30.50;99.90
19972;DHT22;10147;16.402;102.848;2022-08-19T13:03:59;30.40;99.90
19972;DHT22;10147;16.402;102.848;2022-08-19T13:06:30;30.30;99.90
19972;DHT22;10147;16.402;102.848;2022-08-19T13:09:03;30.60;99.90
19972;DHT22;10147;16.402;102.848;2022-08-19T13:11:35;30.80;99.90
19972;DHT22;10147;16.402;102.848;2022-08-19T13:14:05;30.80;99.90
19972;DHT22;10147;16.402;102.848;2022-08-19T13:16:36;30.80;99.90
19972;DHT22;10147;16.402;102.848;2022-08-19T13:19:07;30.80;99.90
19972;DHT22;10147;16.402;102.848;2022-08-19T13:21:37;30.40;99.90
19972;DHT22;10147;16.402;102.848;2022-08-19T13:24:09;30.20;99.90
19972;DHT22;10147;16.402;102.848;2022-08-19T13:26:43;30.10;99.90
19972;DHT22;10147;16.402;102.848;2022-08-19T13:29:13;30.00;99.90
19972;DHT22;10147;16.402;102.848;2022-08-19T13:32:03;30.50;99.90
19972;DHT22;10147;16.402;102.848;2022-08-19T13:34:54;30.50;99.90
19972;DHT22;10147;16.402;102.848;2022-08-19T13:37:24;30.60;99.90
19972;DHT22;10147;16.402;102.848;2022-08-19T13:40:19;30.10;99.90
19972;DHT22;10147;16.402;102.848;2022-08-19T13:42:53;29.70;99.90
19972;DHT22;10147;16.402;102.848;2022-08-19T13:45:25;29.90;99.90
19972;DHT22;10147;16.402;102.848;2022-08-19T13:47:57;30.30;99.90
19972;DHT22;10147;16.402;102.848;2022-08-19T13:50:30;30.40;99.90
19972;DHT22;10147;16.402;102.848;2022-08-19T13:53:01;29.90;99.90
19972;DHT22;10147;16.402;102.848;2022-08-19T13:55:31;29.70;99.90
19972;DHT22;10147;16.402;102.848;2022-08-19T13:58:02;29.70;99.90
19972;DHT22;10147;16.402;102.848;2022-08-19T14:00:42;30.10;99.90
19972;DHT22;10147;16.402;102.848;2022-08-19T14:03:13;30.40;99.90
19972;DHT22;10147;16.402;102.848;2022-08-19T14:05:43;30.00;99.90
19972;DHT22;10147;16.402;102.848;2022-08-19T14:08:13;29.50;99.90
19972;DHT22;10147;16.402;102.848;2022-08-19T14:10:44;29.60;99.90
19972;DHT22;10147;16.402;102.848;2022-08-19T14:13:18;30.20;99.90
19972;DHT22;10147;16.402;102.848;2022-08-19T14:15:49;30.30;99.90
